KTUP/TUP METAR and TAF weather

Enter ICAO airport designator
Station Type Date Time Source
KTUP METAR 2020/04/07 14:53 UTC NOAA

KTUP 071453Z 20007KT 10SM OVC055 23/17 A3002 RMK AO2 SLP163 T02280172 50002


Station Type Date Time Source
KTUP Decoded METAR 2020/04/07 14:53 UTC NOAA

TUPELO REGIONAL AIRPORT, MS, United States (KTUP) 34-16N 88-46W 105M
Apr 07, 2020 - 10:53 AM EDT / 2020.04.07 1453 UTC
Wind: from the SSW (200 degrees) at 8 MPH (7 KT):0
Visibility: 10 mile(s):0
Sky conditions: overcast
Temperature: 73.0 F (22.8 C)
Dew Point: 63.0 F (17.2 C)
Relative Humidity: 70%
Pressure (altimeter): 30.02 in. Hg (1016 hPa)
Pressure tendency: 0.01 inches (0.2 hPa) higher than three hours ago
ob: KTUP 071453Z 20007KT 10SM OVC055 23/17 A3002 RMK AO2 SLP163 T02280172 50002
cycle: 15

Station Type Date Time Source
KTUP TAF 2020/04/07 12:24 UTC NOAA

TAF KTUP 071122Z 0712/0812 20005KT P6SM BKN040
FM071600 22010G15KT P6SM VCTS SCT009 BKN015CB
TEMPO 0719/0721 2SM -RA BR OVC007
FM072200 20008KT P6SM VCTS BKN009CB
FM080200 22004KT P6SM VCSH OVC007

Example: see airport list